sensor_id;sensor_type;location;lat;lon;timestamp;P1;durP1;ratioP1;P2;durP2;ratioP2
59788;SDS011;47353;51.614;5.530;2023-04-15T00:02:12;12.73;;;7.03;;
59788;SDS011;47353;51.614;5.530;2023-04-15T00:04:39;14.65;;;7.07;;
59788;SDS011;47353;51.614;5.530;2023-04-15T00:07:04;12.45;;;7.25;;
59788;SDS011;47353;51.614;5.530;2023-04-15T00:09:29;11.93;;;7.22;;
59788;SDS011;47353;51.614;5.530;2023-04-15T00:11:55;11.98;;;7.18;;
59788;SDS011;47353;51.614;5.530;2023-04-15T00:14:21;12.57;;;7.22;;
59788;SDS011;47353;51.614;5.530;2023-04-15T00:16:47;12.48;;;7.55;;
59788;SDS011;47353;51.614;5.530;2023-04-15T00:19:19;14.38;;;7.60;;
59788;SDS011;47353;51.614;5.530;2023-04-15T00:21:44;9.45;;;6.80;;
59788;SDS011;47353;51.614;5.530;2023-04-15T00:24:10;13.25;;;7.43;;
59788;SDS011;47353;51.614;5.530;2023-04-15T00:26:35;13.15;;;7.47;;
59788;SDS011;47353;51.614;5.530;2023-04-15T00:29:01;14.30;;;7.68;;
59788;SDS011;47353;51.614;5.530;2023-04-15T00:31:27;10.15;;;7.25;;
59788;SDS011;47353;51.614;5.530;2023-04-15T00:33:52;11.75;;;7.85;;
59788;SDS011;47353;51.614;5.530;2023-04-15T00:36:17;13.45;;;7.43;;
59788;SDS011;47353;51.614;5.530;2023-04-15T00:38:43;13.07;;;7.88;;
59788;SDS011;47353;51.614;5.530;2023-04-15T00:41:08;12.88;;;7.65;;
59788;SDS011;47353;51.614;5.530;2023-04-15T00:43:35;15.20;;;8.00;;
59788;SDS011;47353;51.614;5.530;2023-04-15T00:46:00;11.93;;;7.68;;
59788;SDS011;47353;51.614;5.530;2023-04-15T00:48:29;12.98;;;7.50;;
59788;SDS011;47353;51.614;5.530;2023-04-15T00:50:55;12.38;;;7.75;;
59788;SDS011;47353;51.614;5.530;2023-04-15T00:53:21;12.02;;;8.07;;
59788;SDS011;47353;51.614;5.530;2023-04-15T00:55:46;14.80;;;7.78;;
59788;SDS011;47353;51.614;5.530;2023-04-15T00:58:11;14.90;;;7.90;;
59788;SDS011;47353;51.614;5.530;2023-04-15T01:00:37;14.02;;;8.45;;
59788;SDS011;47353;51.614;5.530;2023-04-15T01:03:02;13.50;;;8.68;;
59788;SDS011;47353;51.614;5.530;2023-04-15T01:05:28;12.80;;;7.95;;
59788;SDS011;47353;51.614;5.530;2023-04-15T01:07:55;12.23;;;8.02;;
59788;SDS011;47353;51.614;5.530;2023-04-15T01:10:20;12.80;;;8.10;;
59788;SDS011;47353;51.614;5.530;2023-04-15T01:12:46;12.75;;;8.25;;
59788;SDS011;47353;51.614;5.530;2023-04-15T01:15:12;12.20;;;8.75;;
59788;SDS011;47353;51.614;5.530;2023-04-15T01:17:38;15.20;;;8.60;;
59788;SDS011;47353;51.614;5.530;2023-04-15T01:20:04;13.25;;;8.52;;
59788;SDS011;47353;51.614;5.530;2023-04-15T01:22:30;11.23;;;8.52;;
59788;SDS011;47353;51.614;5.530;2023-04-15T01:25:11;14.02;;;8.82;;
59788;SDS011;47353;51.614;5.530;2023-04-15T01:27:41;13.65;;;8.82;;
59788;SDS011;47353;51.614;5.530;2023-04-15T01:30:07;13.50;;;8.32;;
59788;SDS011;47353;51.614;5.530;2023-04-15T01:32:34;13.30;;;8.60;;
59788;SDS011;47353;51.614;5.530;2023-04-15T01:35:00;13.00;;;8.50;;
59788;SDS011;47353;51.614;5.530;2023-04-15T01:37:26;13.95;;;9.02;;
59788;SDS011;47353;51.614;5.530;2023-04-15T01:39:51;13.27;;;8.70;;
59788;SDS011;47353;51.614;5.530;2023-04-15T01:42:17;13.75;;;9.10;;
59788;SDS011;47353;51.614;5.530;2023-04-15T01:44:42;12.40;;;9.55;;
59788;SDS011;47353;51.614;5.530;2023-04-15T01:47:07;10.75;;;8.90;;
59788;SDS011;47353;51.614;5.530;2023-04-15T01:49:33;12.77;;;9.23;;
59788;SDS011;47353;51.614;5.530;2023-04-15T01:51:58;14.93;;;9.15;;
59788;SDS011;47353;51.614;5.530;2023-04-15T01:54:24;12.75;;;8.88;;
59788;SDS011;47353;51.614;5.530;2023-04-15T01:56:51;14.55;;;9.30;;
59788;SDS011;47353;51.614;5.530;2023-04-15T01:59:16;11.70;;;8.73;;
59788;SDS011;47353;51.614;5.530;2023-04-15T02:01:42;13.52;;;8.85;;
59788;SDS011;47353;51.614;5.530;2023-04-15T02:04:09;14.65;;;9.70;;
59788;SDS011;47353;51.614;5.530;2023-04-15T02:06:40;13.65;;;8.98;;
59788;SDS011;47353;51.614;5.530;2023-04-15T02:09:08;16.00;;;9.90;;
59788;SDS011;47353;51.614;5.530;2023-04-15T02:11:34;12.93;;;10.07;;
59788;SDS011;47353;51.614;5.530;2023-04-15T02:14:01;17.02;;;10.05;;
59788;SDS011;47353;51.614;5.530;2023-04-15T02:16:31;18.17;;;9.75;;
59788;SDS011;47353;51.614;5.530;2023-04-15T02:18:58;13.93;;;9.40;;
59788;SDS011;47353;51.614;5.530;2023-04-15T02:21:27;14.23;;;9.35;;
59788;SDS011;47353;51.614;5.530;2023-04-15T02:23:52;14.27;;;9.35;;
59788;SDS011;47353;51.614;5.530;2023-04-15T02:26:18;12.25;;;9.65;;
59788;SDS011;47353;51.614;5.530;2023-04-15T02:28:44;14.90;;;9.93;;
59788;SDS011;47353;51.614;5.530;2023-04-15T02:31:10;14.13;;;9.30;;
59788;SDS011;47353;51.614;5.530;2023-04-15T02:33:36;13.93;;;9.70;;
59788;SDS011;47353;51.614;5.530;2023-04-15T02:36:01;13.40;;;9.02;;
59788;SDS011;47353;51.614;5.530;2023-04-15T02:38:27;14.45;;;9.93;;
59788;SDS011;47353;51.614;5.530;2023-04-15T02:40:52;13.10;;;9.13;;
59788;SDS011;47353;51.614;5.530;2023-04-15T02:43:18;15.00;;;9.70;;
59788;SDS011;47353;51.614;5.530;2023-04-15T02:45:44;12.48;;;9.07;;
59788;SDS011;47353;51.614;5.530;2023-04-15T02:48:11;15.70;;;9.77;;
59788;SDS011;47353;51.614;5.530;2023-04-15T02:50:36;15.25;;;9.73;;
59788;SDS011;47353;51.614;5.530;2023-04-15T02:53:04;13.75;;;9.43;;
59788;SDS011;47353;51.614;5.530;2023-04-15T02:55:30;14.60;;;9.82;;
59788;SDS011;47353;51.614;5.530;2023-04-15T02:57:56;15.25;;;9.70;;
59788;SDS011;47353;51.614;5.530;2023-04-15T03:00:23;15.55;;;9.40;;
59788;SDS011;47353;51.614;5.530;2023-04-15T03:02:49;14.75;;;10.35;;
59788;SDS011;47353;51.614;5.530;2023-04-15T03:05:20;17.35;;;10.50;;
59788;SDS011;47353;51.614;5.530;2023-04-15T03:07:48;16.15;;;10.15;;
59788;SDS011;47353;51.614;5.530;2023-04-15T03:10:14;13.35;;;10.40;;
59788;SDS011;47353;51.614;5.530;2023-04-15T03:12:39;14.15;;;10.23;;
59788;SDS011;47353;51.614;5.530;2023-04-15T03:15:05;15.32;;;10.02;;
59788;SDS011;47353;51.614;5.530;2023-04-15T03:17:32;16.48;;;10.73;;
59788;SDS011;47353;51.614;5.530;2023-04-15T03:19:57;13.80;;;10.63;;
59788;SDS011;47353;51.614;5.530;2023-04-15T03:22:22;13.10;;;9.88;;
59788;SDS011;47353;51.614;5.530;2023-04-15T03:24:49;13.77;;;10.18;;
59788;SDS011;47353;51.614;5.530;2023-04-15T03:27:14;13.65;;;10.27;;
59788;SDS011;47353;51.614;5.530;2023-04-15T03:29:39;15.15;;;10.13;;
59788;SDS011;47353;51.614;5.530;2023-04-15T03:32:05;13.50;;;9.95;;
59788;SDS011;47353;51.614;5.530;2023-04-15T03:34:30;15.38;;;10.93;;
59788;SDS011;47353;51.614;5.530;2023-04-15T03:36:56;14.93;;;10.77;;
59788;SDS011;47353;51.614;5.530;2023-04-15T03:39:21;13.52;;;10.52;;
59788;SDS011;47353;51.614;5.530;2023-04-15T03:41:47;14.27;;;10.43;;
59788;SDS011;47353;51.614;5.530;2023-04-15T03:44:12;14.93;;;10.13;;
59788;SDS011;47353;51.614;5.530;2023-04-15T03:46:38;15.13;;;10.93;;
59788;SDS011;47353;51.614;5.530;2023-04-15T03:49:05;14.40;;;10.70;;
59788;SDS011;47353;51.614;5.530;2023-04-15T03:51:31;16.98;;;11.10;;
59788;SDS011;47353;51.614;5.530;2023-04-15T03:53:56;15.82;;;10.80;;
59788;SDS011;47353;51.614;5.530;2023-04-15T03:56:22;17.00;;;11.40;;
59788;SDS011;47353;51.614;5.530;2023-04-15T03:58:48;14.95;;;10.63;;
59788;SDS011;47353;51.614;5.530;2023-04-15T04:01:14;17.23;;;11.27;;
59788;SDS011;47353;51.614;5.530;2023-04-15T04:03:39;14.90;;;10.60;;
59788;SDS011;47353;51.614;5.530;2023-04-15T04:06:05;16.50;;;11.35;;
59788;SDS011;47353;51.614;5.530;2023-04-15T04:08:30;15.98;;;11.25;;
59788;SDS011;47353;51.614;5.530;2023-04-15T04:10:56;18.63;;;11.32;;
59788;SDS011;47353;51.614;5.530;2023-04-15T04:13:22;15.75;;;11.30;;
59788;SDS011;47353;51.614;5.530;2023-04-15T04:15:47;15.57;;;11.15;;
59788;SDS011;47353;51.614;5.530;2023-04-15T04:18:12;17.45;;;11.23;;
59788;SDS011;47353;51.614;5.530;2023-04-15T04:20:38;16.17;;;11.43;;
59788;SDS011;47353;51.614;5.530;2023-04-15T04:23:03;13.95;;;10.90;;
59788;SDS011;47353;51.614;5.530;2023-04-15T04:25:29;15.43;;;11.32;;
59788;SDS011;47353;51.614;5.530;2023-04-15T04:27:54;15.70;;;11.27;;
59788;SDS011;47353;51.614;5.530;2023-04-15T04:30:20;16.58;;;11.38;;
59788;SDS011;47353;51.614;5.530;2023-04-15T04:32:45;15.80;;;11.65;;
59788;SDS011;47353;51.614;5.530;2023-04-15T04:35:10;15.45;;;11.63;;
59788;SDS011;47353;51.614;5.530;2023-04-15T04:37:36;16.00;;;11.35;;
59788;SDS011;47353;51.614;5.530;2023-04-15T04:40:01;14.40;;;11.13;;
59788;SDS011;47353;51.614;5.530;2023-04-15T04:42:26;15.85;;;11.00;;
59788;SDS011;47353;51.614;5.530;2023-04-15T04:44:52;18.48;;;12.02;;
59788;SDS011;47353;51.614;5.530;2023-04-15T04:47:17;16.70;;;11.90;;
59788;SDS011;47353;51.614;5.530;2023-04-15T04:49:43;20.75;;;11.88;;
59788;SDS011;47353;51.614;5.530;2023-04-15T04:52:08;16.00;;;11.60;;
59788;SDS011;47353;51.614;5.530;2023-04-15T04:54:34;15.55;;;11.35;;
59788;SDS011;47353;51.614;5.530;2023-04-15T04:56:59;17.92;;;11.38;;
59788;SDS011;47353;51.614;5.530;2023-04-15T04:59:25;16.15;;;11.30;;
59788;SDS011;47353;51.614;5.530;2023-04-15T05:01:51;18.75;;;12.55;;
59788;SDS011;47353;51.614;5.530;2023-04-15T05:04:16;17.95;;;11.77;;
59788;SDS011;47353;51.614;5.530;2023-04-15T05:06:42;17.02;;;11.85;;
59788;SDS011;47353;51.614;5.530;2023-04-15T05:09:07;18.92;;;12.43;;
59788;SDS011;47353;51.614;5.530;2023-04-15T05:11:33;17.10;;;11.77;;
59788;SDS011;47353;51.614;5.530;2023-04-15T05:13:58;17.83;;;12.25;;
59788;SDS011;47353;51.614;5.530;2023-04-15T05:16:25;19.20;;;11.98;;
59788;SDS011;47353;51.614;5.530;2023-04-15T05:18:51;18.02;;;11.88;;
59788;SDS011;47353;51.614;5.530;2023-04-15T05:21:16;15.98;;;11.45;;
59788;SDS011;47353;51.614;5.530;2023-04-15T05:23:42;18.15;;;11.70;;
59788;SDS011;47353;51.614;5.530;2023-04-15T05:26:07;19.63;;;12.38;;
59788;SDS011;47353;51.614;5.530;2023-04-15T05:28:33;18.67;;;12.25;;
59788;SDS011;47353;51.614;5.530;2023-04-15T05:30:58;18.00;;;11.65;;
59788;SDS011;47353;51.614;5.530;2023-04-15T05:33:24;17.50;;;12.00;;
59788;SDS011;47353;51.614;5.530;2023-04-15T05:35:50;17.75;;;11.90;;
59788;SDS011;47353;51.614;5.530;2023-04-15T05:38:15;16.83;;;12.10;;
59788;SDS011;47353;51.614;5.530;2023-04-15T05:40:41;16.92;;;11.68;;
59788;SDS011;47353;51.614;5.530;2023-04-15T05:43:06;18.42;;;12.50;;
59788;SDS011;47353;51.614;5.530;2023-04-15T05:45:32;14.57;;;11.20;;
59788;SDS011;47353;51.614;5.530;2023-04-15T05:47:57;18.08;;;12.38;;
59788;SDS011;47353;51.614;5.530;2023-04-15T05:50:23;16.48;;;11.77;;
59788;SDS011;47353;51.614;5.530;2023-04-15T05:52:48;16.80;;;12.23;;
59788;SDS011;47353;51.614;5.530;2023-04-15T05:55:13;15.73;;;11.55;;
59788;SDS011;47353;51.614;5.530;2023-04-15T05:57:39;15.82;;;11.85;;
59788;SDS011;47353;51.614;5.530;2023-04-15T06:00:04;16.90;;;12.45;;
59788;SDS011;47353;51.614;5.530;2023-04-15T06:02:30;15.05;;;11.70;;
59788;SDS011;47353;51.614;5.530;2023-04-15T06:04:56;17.88;;;11.55;;
59788;SDS011;47353;51.614;5.530;2023-04-15T06:07:22;15.65;;;12.38;;
59788;SDS011;47353;51.614;5.530;2023-04-15T06:09:48;18.55;;;12.30;;
59788;SDS011;47353;51.614;5.530;2023-04-15T06:12:14;17.42;;;12.43;;
59788;SDS011;47353;51.614;5.530;2023-04-15T06:14:39;17.58;;;12.82;;
59788;SDS011;47353;51.614;5.530;2023-04-15T06:17:05;17.80;;;13.20;;
59788;SDS011;47353;51.614;5.530;2023-04-15T06:19:31;18.88;;;12.20;;
59788;SDS011;47353;51.614;5.530;2023-04-15T06:21:57;17.50;;;12.30;;
59788;SDS011;47353;51.614;5.530;2023-04-15T06:24:22;17.08;;;11.35;;
59788;SDS011;47353;51.614;5.530;2023-04-15T06:26:48;14.80;;;11.15;;
59788;SDS011;47353;51.614;5.530;2023-04-15T06:29:13;15.82;;;11.55;;
59788;SDS011;47353;51.614;5.530;2023-04-15T06:31:39;15.73;;;11.65;;
59788;SDS011;47353;51.614;5.530;2023-04-15T06:34:05;15.32;;;11.75;;
59788;SDS011;47353;51.614;5.530;2023-04-15T06:36:30;16.77;;;11.27;;
59788;SDS011;47353;51.614;5.530;2023-04-15T06:38:56;16.05;;;11.43;;
59788;SDS011;47353;51.614;5.530;2023-04-15T06:41:21;14.82;;;11.65;;
59788;SDS011;47353;51.614;5.530;2023-04-15T06:43:47;15.32;;;11.35;;
59788;SDS011;47353;51.614;5.530;2023-04-15T06:46:12;14.82;;;11.13;;
59788;SDS011;47353;51.614;5.530;2023-04-15T06:48:38;15.63;;;11.23;;
59788;SDS011;47353;51.614;5.530;2023-04-15T06:51:04;13.77;;;10.80;;
59788;SDS011;47353;51.614;5.530;2023-04-15T06:53:29;14.70;;;11.38;;
59788;SDS011;47353;51.614;5.530;2023-04-15T06:55:54;15.63;;;10.82;;
59788;SDS011;47353;51.614;5.530;2023-04-15T06:58:20;15.02;;;11.35;;
59788;SDS011;47353;51.614;5.530;2023-04-15T07:00:46;14.30;;;10.82;;
59788;SDS011;47353;51.614;5.530;2023-04-15T07:03:12;14.55;;;11.18;;
59788;SDS011;47353;51.614;5.530;2023-04-15T07:05:37;13.85;;;10.57;;
59788;SDS011;47353;51.614;5.530;2023-04-15T07:08:04;14.10;;;11.07;;
59788;SDS011;47353;51.614;5.530;2023-04-15T07:10:30;15.13;;;10.35;;
59788;SDS011;47353;51.614;5.530;2023-04-15T07:12:56;13.93;;;10.52;;
59788;SDS011;47353;51.614;5.530;2023-04-15T07:15:21;13.77;;;10.63;;
59788;SDS011;47353;51.614;5.530;2023-04-15T07:17:47;12.88;;;9.80;;
59788;SDS011;47353;51.614;5.530;2023-04-15T07:20:13;13.18;;;10.05;;
59788;SDS011;47353;51.614;5.530;2023-04-15T07:22:38;12.60;;;9.63;;
59788;SDS011;47353;51.614;5.530;2023-04-15T07:25:04;13.50;;;9.77;;
59788;SDS011;47353;51.614;5.530;2023-04-15T07:27:30;11.93;;;9.35;;
59788;SDS011;47353;51.614;5.530;2023-04-15T07:29:56;10.63;;;9.07;;
59788;SDS011;47353;51.614;5.530;2023-04-15T07:32:21;11.70;;;9.00;;
59788;SDS011;47353;51.614;5.530;2023-04-15T07:34:47;11.48;;;8.75;;
59788;SDS011;47353;51.614;5.530;2023-04-15T07:37:13;11.07;;;8.23;;
59788;SDS011;47353;51.614;5.530;2023-04-15T07:39:39;10.68;;;8.18;;
59788;SDS011;47353;51.614;5.530;2023-04-15T07:42:04;10.27;;;8.05;;
59788;SDS011;47353;51.614;5.530;2023-04-15T07:44:29;9.52;;;7.90;;
59788;SDS011;47353;51.614;5.530;2023-04-15T07:46:55;10.95;;;7.70;;
59788;SDS011;47353;51.614;5.530;2023-04-15T07:49:21;11.00;;;7.35;;
59788;SDS011;47353;51.614;5.530;2023-04-15T07:51:47;9.15;;;6.70;;
59788;SDS011;47353;51.614;5.530;2023-04-15T07:54:13;9.55;;;7.60;;
59788;SDS011;47353;51.614;5.530;2023-04-15T07:56:39;9.52;;;7.45;;
59788;SDS011;47353;51.614;5.530;2023-04-15T07:59:04;9.32;;;7.50;;
59788;SDS011;47353;51.614;5.530;2023-04-15T08:01:30;8.63;;;7.20;;
59788;SDS011;47353;51.614;5.530;2023-04-15T08:03:57;6.38;;;5.68;;
59788;SDS011;47353;51.614;5.530;2023-04-15T08:06:23;6.82;;;5.90;;
59788;SDS011;47353;51.614;5.530;2023-04-15T08:08:48;7.35;;;5.53;;
59788;SDS011;47353;51.614;5.530;2023-04-15T08:11:13;8.43;;;5.70;;
59788;SDS011;47353;51.614;5.530;2023-04-15T08:13:39;9.18;;;5.60;;
59788;SDS011;47353;51.614;5.530;2023-04-15T08:16:21;7.28;;;5.30;;
59788;SDS011;47353;51.614;5.530;2023-04-15T08:18:48;5.80;;;4.90;;
59788;SDS011;47353;51.614;5.530;2023-04-15T08:21:15;7.47;;;5.15;;
59788;SDS011;47353;51.614;5.530;2023-04-15T08:23:44;5.03;;;4.43;;
59788;SDS011;47353;51.614;5.530;2023-04-15T08:26:10;5.75;;;4.05;;
59788;SDS011;47353;51.614;5.530;2023-04-15T08:28:37;4.75;;;4.35;;
59788;SDS011;47353;51.614;5.530;2023-04-15T08:31:03;4.50;;;4.10;;
59788;SDS011;47353;51.614;5.530;2023-04-15T08:33:29;5.10;;;4.05;;
59788;SDS011;47353;51.614;5.530;2023-04-15T08:35:55;5.35;;;3.80;;
59788;SDS011;47353;51.614;5.530;2023-04-15T08:38:20;4.47;;;4.05;;
59788;SDS011;47353;51.614;5.530;2023-04-15T08:40:46;4.78;;;3.78;;
59788;SDS011;47353;51.614;5.530;2023-04-15T08:43:13;5.15;;;4.25;;
59788;SDS011;47353;51.614;5.530;2023-04-15T08:45:42;4.82;;;3.75;;
59788;SDS011;47353;51.614;5.530;2023-04-15T08:48:10;4.38;;;3.97;;
59788;SDS011;47353;51.614;5.530;2023-04-15T08:50:42;5.10;;;4.47;;
59788;SDS011;47353;51.614;5.530;2023-04-15T08:53:08;7.28;;;4.55;;
59788;SDS011;47353;51.614;5.530;2023-04-15T08:55:35;7.18;;;4.95;;
59788;SDS011;47353;51.614;5.530;2023-04-15T08:58:07;6.18;;;4.97;;
59788;SDS011;47353;51.614;5.530;2023-04-15T09:00:34;5.93;;;4.13;;
59788;SDS011;47353;51.614;5.530;2023-04-15T09:03:00;4.20;;;3.80;;
59788;SDS011;47353;51.614;5.530;2023-04-15T09:05:25;5.38;;;4.68;;
59788;SDS011;47353;51.614;5.530;2023-04-15T09:07:51;7.30;;;4.68;;
59788;SDS011;47353;51.614;5.530;2023-04-15T09:10:16;5.75;;;4.63;;
59788;SDS011;47353;51.614;5.530;2023-04-15T09:12:42;4.82;;;4.32;;
59788;SDS011;47353;51.614;5.530;2023-04-15T09:15:10;5.75;;;4.75;;
59788;SDS011;47353;51.614;5.530;2023-04-15T09:17:41;5.22;;;4.68;;
59788;SDS011;47353;51.614;5.530;2023-04-15T09:20:08;5.10;;;4.60;;
59788;SDS011;47353;51.614;5.530;2023-04-15T09:22:34;4.70;;;4.30;;
59788;SDS011;47353;51.614;5.530;2023-04-15T09:25:01;6.47;;;3.28;;
59788;SDS011;47353;51.614;5.530;2023-04-15T09:27:26;5.93;;;3.88;;
59788;SDS011;47353;51.614;5.530;2023-04-15T09:29:52;6.10;;;4.35;;
59788;SDS011;47353;51.614;5.530;2023-04-15T09:32:18;6.22;;;4.72;;
59788;SDS011;47353;51.614;5.530;2023-04-15T09:34:45;5.85;;;4.68;;
59788;SDS011;47353;51.614;5.530;2023-04-15T09:37:10;5.60;;;4.05;;
59788;SDS011;47353;51.614;5.530;2023-04-15T09:39:47;4.20;;;3.03;;
59788;SDS011;47353;51.614;5.530;2023-04-15T09:42:14;5.30;;;3.25;;
59788;SDS011;47353;51.614;5.530;2023-04-15T09:44:41;3.33;;;2.47;;
59788;SDS011;47353;51.614;5.530;2023-04-15T09:47:07;4.85;;;3.00;;
59788;SDS011;47353;51.614;5.530;2023-04-15T09:49:33;6.68;;;3.10;;
59788;SDS011;47353;51.614;5.530;2023-04-15T09:51:59;4.10;;;2.92;;
59788;SDS011;47353;51.614;5.530;2023-04-15T09:54:34;3.58;;;2.95;;
59788;SDS011;47353;51.614;5.530;2023-04-15T09:57:05;4.40;;;2.45;;
59788;SDS011;47353;51.614;5.530;2023-04-15T09:59:31;4.43;;;3.20;;
59788;SDS011;47353;51.614;5.530;2023-04-15T10:01:56;3.53;;;3.00;;
59788;SDS011;47353;51.614;5.530;2023-04-15T10:04:22;2.92;;;2.60;;
59788;SDS011;47353;51.614;5.530;2023-04-15T10:06:48;4.65;;;2.92;;
59788;SDS011;47353;51.614;5.530;2023-04-15T10:09:14;3.65;;;3.10;;
59788;SDS011;47353;51.614;5.530;2023-04-15T10:11:41;4.45;;;2.50;;
59788;SDS011;47353;51.614;5.530;2023-04-15T10:14:08;3.25;;;2.60;;
59788;SDS011;47353;51.614;5.530;2023-04-15T10:16:35;3.28;;;2.65;;
59788;SDS011;47353;51.614;5.530;2023-04-15T10:19:07;5.20;;;2.60;;
59788;SDS011;47353;51.614;5.530;2023-04-15T10:21:33;2.47;;;2.20;;
59788;SDS011;47353;51.614;5.530;2023-04-15T10:24:00;3.03;;;2.33;;
59788;SDS011;47353;51.614;5.530;2023-04-15T10:26:27;2.83;;;2.45;;
59788;SDS011;47353;51.614;5.530;2023-04-15T10:28:53;2.95;;;2.47;;
59788;SDS011;47353;51.614;5.530;2023-04-15T10:31:19;3.05;;;1.75;;
59788;SDS011;47353;51.614;5.530;2023-04-15T10:33:45;1.63;;;1.50;;
59788;SDS011;47353;51.614;5.530;2023-04-15T10:36:12;2.08;;;1.48;;
59788;SDS011;47353;51.614;5.530;2023-04-15T10:38:39;1.55;;;1.42;;
59788;SDS011;47353;51.614;5.530;2023-04-15T10:41:13;2.47;;;1.70;;
59788;SDS011;47353;51.614;5.530;2023-04-15T10:43:51;1.60;;;1.50;;
59788;SDS011;47353;51.614;5.530;2023-04-15T10:46:21;2.38;;;1.50;;
59788;SDS011;47353;51.614;5.530;2023-04-15T10:48:52;4.55;;;2.13;;
59788;SDS011;47353;51.614;5.530;2023-04-15T10:51:25;2.60;;;1.63;;
59788;SDS011;47353;51.614;5.530;2023-04-15T10:53:56;2.30;;;2.10;;
59788;SDS011;47353;51.614;5.530;2023-04-15T10:56:23;3.22;;;2.00;;
59788;SDS011;47353;51.614;5.530;2023-04-15T10:58:49;3.80;;;2.60;;
59788;SDS011;47353;51.614;5.530;2023-04-15T11:01:15;2.65;;;2.45;;
59788;SDS011;47353;51.614;5.530;2023-04-15T11:03:41;2.42;;;2.10;;
59788;SDS011;47353;51.614;5.530;2023-04-15T11:06:07;2.22;;;2.03;;
59788;SDS011;47353;51.614;5.530;2023-04-15T11:08:52;3.13;;;2.33;;
59788;SDS011;47353;51.614;5.530;2023-04-15T11:11:38;2.20;;;1.88;;
59788;SDS011;47353;51.614;5.530;2023-04-15T11:14:28;2.45;;;2.25;;
59788;SDS011;47353;51.614;5.530;2023-04-15T11:16:54;3.65;;;2.58;;
59788;SDS011;47353;51.614;5.530;2023-04-15T11:19:19;3.25;;;2.17;;
59788;SDS011;47353;51.614;5.530;2023-04-15T11:21:45;2.72;;;2.00;;
59788;SDS011;47353;51.614;5.530;2023-04-15T11:24:10;3.90;;;2.17;;
59788;SDS011;47353;51.614;5.530;2023-04-15T11:26:36;2.40;;;2.15;;
59788;SDS011;47353;51.614;5.530;2023-04-15T11:29:02;2.63;;;1.50;;
59788;SDS011;47353;51.614;5.530;2023-04-15T11:31:27;2.30;;;1.80;;
59788;SDS011;47353;51.614;5.530;2023-04-15T11:33:57;2.13;;;1.55;;
59788;SDS011;47353;51.614;5.530;2023-04-15T11:36:24;3.53;;;1.63;;
59788;SDS011;47353;51.614;5.530;2023-04-15T11:38:54;2.78;;;1.30;;
59788;SDS011;47353;51.614;5.530;2023-04-15T11:41:24;3.65;;;1.58;;
59788;SDS011;47353;51.614;5.530;2023-04-15T11:43:50;2.63;;;1.58;;
59788;SDS011;47353;51.614;5.530;2023-04-15T11:46:16;2.42;;;1.52;;
59788;SDS011;47353;51.614;5.530;2023-04-15T11:48:43;2.17;;;1.70;;
59788;SDS011;47353;51.614;5.530;2023-04-15T11:51:09;2.25;;;1.80;;
59788;SDS011;47353;51.614;5.530;2023-04-15T11:56:03;2.05;;;1.85;;
59788;SDS011;47353;51.614;5.530;2023-04-15T11:58:29;3.00;;;1.77;;
59788;SDS011;47353;51.614;5.530;2023-04-15T12:00:59;1.90;;;1.70;;
59788;SDS011;47353;51.614;5.530;2023-04-15T12:03:25;3.65;;;1.77;;
59788;SDS011;47353;51.614;5.530;2023-04-15T12:06:05;3.08;;;2.20;;
59788;SDS011;47353;51.614;5.530;2023-04-15T12:11:19;3.47;;;2.13;;
59788;SDS011;47353;51.614;5.530;2023-04-15T12:13:48;3.53;;;1.95;;
59788;SDS011;47353;51.614;5.530;2023-04-15T12:16:21;2.63;;;1.90;;
59788;SDS011;47353;51.614;5.530;2023-04-15T12:18:51;2.35;;;2.00;;
59788;SDS011;47353;51.614;5.530;2023-04-15T12:21:20;3.13;;;1.70;;
59788;SDS011;47353;51.614;5.530;2023-04-15T12:23:48;3.30;;;1.90;;
59788;SDS011;47353;51.614;5.530;2023-04-15T12:26:17;5.45;;;2.35;;
59788;SDS011;47353;51.614;5.530;2023-04-15T12:28:52;2.60;;;2.25;;
59788;SDS011;47353;51.614;5.530;2023-04-15T12:31:19;2.13;;;1.92;;
59788;SDS011;47353;51.614;5.530;2023-04-15T12:33:47;2.50;;;2.22;;
59788;SDS011;47353;51.614;5.530;2023-04-15T12:36:13;3.33;;;3.00;;
59788;SDS011;47353;51.614;5.530;2023-04-15T12:38:39;4.07;;;2.20;;
59788;SDS011;47353;51.614;5.530;2023-04-15T12:41:04;3.88;;;2.80;;
59788;SDS011;47353;51.614;5.530;2023-04-15T12:43:30;3.13;;;2.50;;
59788;SDS011;47353;51.614;5.530;2023-04-15T12:45:55;3.40;;;2.55;;
59788;SDS011;47353;51.614;5.530;2023-04-15T12:48:20;3.40;;;2.42;;
59788;SDS011;47353;51.614;5.530;2023-04-15T12:50:46;3.15;;;2.88;;
59788;SDS011;47353;51.614;5.530;2023-04-15T12:53:11;3.38;;;2.53;;
59788;SDS011;47353;51.614;5.530;2023-04-15T12:55:37;4.05;;;2.67;;
59788;SDS011;47353;51.614;5.530;2023-04-15T12:58:03;5.32;;;2.90;;
59788;SDS011;47353;51.614;5.530;2023-04-15T13:00:28;3.05;;;2.65;;
59788;SDS011;47353;51.614;5.530;2023-04-15T13:02:54;3.33;;;2.25;;
59788;SDS011;47353;51.614;5.530;2023-04-15T13:05:19;6.50;;;2.50;;
59788;SDS011;47353;51.614;5.530;2023-04-15T13:07:44;3.83;;;2.00;;
59788;SDS011;47353;51.614;5.530;2023-04-15T13:10:10;3.55;;;2.17;;
59788;SDS011;47353;51.614;5.530;2023-04-15T13:12:35;1.83;;;1.67;;
59788;SDS011;47353;51.614;5.530;2023-04-15T13:15:01;2.42;;;1.75;;
59788;SDS011;47353;51.614;5.530;2023-04-15T13:17:28;3.65;;;1.80;;
59788;SDS011;47353;51.614;5.530;2023-04-15T13:19:53;3.97;;;1.52;;
59788;SDS011;47353;51.614;5.530;2023-04-15T13:22:19;3.17;;;1.98;;
59788;SDS011;47353;51.614;5.530;2023-04-15T13:24:44;3.30;;;1.77;;
59788;SDS011;47353;51.614;5.530;2023-04-15T13:27:10;2.10;;;1.80;;
59788;SDS011;47353;51.614;5.530;2023-04-15T13:29:35;2.38;;;1.80;;
59788;SDS011;47353;51.614;5.530;2023-04-15T13:32:01;2.58;;;1.85;;
59788;SDS011;47353;51.614;5.530;2023-04-15T13:34:26;2.95;;;2.03;;
59788;SDS011;47353;51.614;5.530;2023-04-15T13:36:51;3.15;;;1.63;;
59788;SDS011;47353;51.614;5.530;2023-04-15T13:39:17;1.80;;;1.27;;
59788;SDS011;47353;51.614;5.530;2023-04-15T13:41:42;4.50;;;1.40;;
59788;SDS011;47353;51.614;5.530;2023-04-15T13:44:08;4.28;;;1.55;;
59788;SDS011;47353;51.614;5.530;2023-04-15T13:46:33;3.88;;;1.10;;
59788;SDS011;47353;51.614;5.530;2023-04-15T13:48:58;4.75;;;1.98;;
59788;SDS011;47353;51.614;5.530;2023-04-15T13:51:24;3.35;;;1.65;;
59788;SDS011;47353;51.614;5.530;2023-04-15T13:53:51;1.90;;;1.20;;
59788;SDS011;47353;51.614;5.530;2023-04-15T13:56:16;2.15;;;1.20;;
59788;SDS011;47353;51.614;5.530;2023-04-15T13:58:41;2.50;;;1.40;;
59788;SDS011;47353;51.614;5.530;2023-04-15T14:01:07;3.80;;;1.70;;
59788;SDS011;47353;51.614;5.530;2023-04-15T14:03:35;4.55;;;1.88;;
59788;SDS011;47353;51.614;5.530;2023-04-15T14:06:01;4.55;;;1.60;;
59788;SDS011;47353;51.614;5.530;2023-04-15T14:08:27;4.65;;;1.40;;
59788;SDS011;47353;51.614;5.530;2023-04-15T14:10:52;2.25;;;1.30;;
59788;SDS011;47353;51.614;5.530;2023-04-15T14:13:17;2.85;;;1.60;;
59788;SDS011;47353;51.614;5.530;2023-04-15T14:15:43;1.73;;;1.17;;
59788;SDS011;47353;51.614;5.530;2023-04-15T14:18:09;3.50;;;1.33;;
59788;SDS011;47353;51.614;5.530;2023-04-15T14:20:34;2.08;;;1.60;;
59788;SDS011;47353;51.614;5.530;2023-04-15T14:23:00;1.92;;;1.30;;
59788;SDS011;47353;51.614;5.530;2023-04-15T14:25:25;2.70;;;1.35;;
59788;SDS011;47353;51.614;5.530;2023-04-15T14:27:51;4.22;;;1.55;;
59788;SDS011;47353;51.614;5.530;2023-04-15T14:30:16;3.60;;;1.48;;
59788;SDS011;47353;51.614;5.530;2023-04-15T14:32:42;3.03;;;1.50;;
59788;SDS011;47353;51.614;5.530;2023-04-15T14:35:07;1.85;;;1.20;;
59788;SDS011;47353;51.614;5.530;2023-04-15T14:37:33;2.72;;;1.50;;